sensor_id;sensor_type;location;lat;lon;timestamp;pressure;altitude;pressure_sealevel;temperature;humidity
62126;BME280;69591;53.282;6.150;2023-06-14T00:00:47;101916.06;;;23.49;42.84
62126;BME280;69591;53.282;6.150;2023-06-14T00:01:49;101909.41;;;23.46;42.78
62126;BME280;69591;53.282;6.150;2023-06-14T00:02:51;101910.56;;;23.49;42.91
62126;BME280;69591;53.282;6.150;2023-06-14T00:03:53;101920.78;;;23.48;43.07
62126;BME280;69591;53.282;6.150;2023-06-14T00:04:55;101912.53;;;23.48;43.07
62126;BME280;69591;53.282;6.150;2023-06-14T00:05:56;101916.06;;;23.49;43.27
62126;BME280;69591;53.282;6.150;2023-06-14T00:06:58;101916.06;;;23.49;42.88
62126;BME280;69591;53.282;6.150;2023-06-14T00:08:00;101917.28;;;23.48;43.06
62126;BME280;69591;53.282;6.150;2023-06-14T00:09:02;101910.56;;;23.45;43.23
62126;BME280;69591;53.282;6.150;2023-06-14T00:10:04;101910.97;;;23.47;43.05
62126;BME280;69591;53.282;6.150;2023-06-14T00:11:07;101920.03;;;23.48;43.10
62126;BME280;69591;53.282;6.150;2023-06-14T00:12:09;101911.38;;;23.46;43.23
62126;BME280;69591;53.282;6.150;2023-06-14T00:13:11;101913.72;;;23.44;43.19
62126;BME280;69591;53.282;6.150;2023-06-14T00:14:14;101911.38;;;23.46;43.13
62126;BME280;69591;53.282;6.150;2023-06-14T00:15:16;101916.50;;;23.44;43.16
62126;BME280;69591;53.282;6.150;2023-06-14T00:16:17;101919.25;;;23.44;42.96
62126;BME280;69591;53.282;6.150;2023-06-14T00:17:19;101905.47;;;23.44;42.89
62126;BME280;69591;53.282;6.150;2023-06-14T00:18:21;101915.31;;;23.45;42.88
62126;BME280;69591;53.282;6.150;2023-06-14T00:19:23;101910.97;;;23.44;43.07
62126;BME280;69591;53.282;6.150;2023-06-14T00:20:25;101913.72;;;23.44;43.16
62126;BME280;69591;53.282;6.150;2023-06-14T00:21:27;101907.84;;;23.42;43.23
62126;BME280;69591;53.282;6.150;2023-06-14T00:22:28;101914.13;;;23.42;43.25
62126;BME280;69591;53.282;6.150;2023-06-14T00:23:30;101911.38;;;23.42;42.89
62126;BME280;69591;53.282;6.150;2023-06-14T00:24:32;101914.53;;;23.41;43.32
62126;BME280;69591;53.282;6.150;2023-06-14T00:25:34;101911.38;;;23.42;43.23
62126;BME280;69591;53.282;6.150;2023-06-14T00:26:38;101912.97;;;23.40;43.07
62126;BME280;69591;53.282;6.150;2023-06-14T00:27:40;101914.53;;;23.41;43.24
62126;BME280;69591;53.282;6.150;2023-06-14T00:28:42;101912.97;;;23.40;43.17
62126;BME280;69591;53.282;6.150;2023-06-14T00:29:45;101916.13;;;23.42;43.19
62126;BME280;69591;53.282;6.150;2023-06-14T00:30:47;101915.75;;;23.40;43.16
62126;BME280;69591;53.282;6.150;2023-06-14T00:31:49;101910.22;;;23.40;42.98
62126;BME280;69591;53.282;6.150;2023-06-14T00:32:52;101910.22;;;23.40;43.21
62126;BME280;69591;53.282;6.150;2023-06-14T00:33:54;101914.94;;;23.39;43.35
62126;BME280;69591;53.282;6.150;2023-06-14T00:34:56;101918.50;;;23.40;43.22
62126;BME280;69591;53.282;6.150;2023-06-14T00:35:58;101914.16;;;23.39;43.24
62126;BME280;69591;53.282;6.150;2023-06-14T00:36:59;101916.91;;;23.39;43.21
62126;BME280;69591;53.282;6.150;2023-06-14T00:38:01;101913.00;;;23.36;43.18
62126;BME280;69591;53.282;6.150;2023-06-14T00:39:03;101915.34;;;23.38;43.27
62126;BME280;69591;53.282;6.150;2023-06-14T00:40:06;101908.63;;;23.39;43.18
62126;BME280;69591;53.282;6.150;2023-06-14T00:41:07;101919.31;;;23.37;43.43
62126;BME280;69591;53.282;6.150;2023-06-14T00:42:09;101914.97;;;23.36;43.15
62126;BME280;69591;53.282;6.150;2023-06-14T00:43:11;101917.72;;;23.36;43.65
62126;BME280;69591;53.282;6.150;2023-06-14T00:44:15;101904.34;;;23.34;43.23
62126;BME280;69591;53.282;6.150;2023-06-14T00:45:19;101913.00;;;23.36;43.44
62126;BME280;69591;53.282;6.150;2023-06-14T00:46:21;101914.59;;;23.34;43.12
62126;BME280;69591;53.282;6.150;2023-06-14T00:47:23;101920.88;;;23.34;43.25
62126;BME280;69591;53.282;6.150;2023-06-14T00:48:25;101912.59;;;23.34;43.38
62126;BME280;69591;53.282;6.150;2023-06-14T00:49:27;101909.84;;;23.34;43.25
62126;BME280;69591;53.282;6.150;2023-06-14T00:50:30;101915.34;;;23.34;43.29
62126;BME280;69591;53.282;6.150;2023-06-14T00:51:32;101911.03;;;23.33;43.35
62126;BME280;69591;53.282;6.150;2023-06-14T00:52:34;101914.59;;;23.34;43.52
62126;BME280;69591;53.282;6.150;2023-06-14T00:53:36;101919.31;;;23.33;43.48
62126;BME280;69591;53.282;6.150;2023-06-14T00:54:38;101911.44;;;23.32;43.33
62126;BME280;69591;53.282;6.150;2023-06-14T00:55:39;101911.84;;;23.30;43.06
62126;BME280;69591;53.282;6.150;2023-06-14T00:56:42;101913.41;;;23.31;43.39
62126;BME280;69591;53.282;6.150;2023-06-14T00:57:46;101909.09;;;23.30;43.33
62126;BME280;69591;53.282;6.150;2023-06-14T00:58:48;101913.81;;;23.30;43.49
62126;BME280;69591;53.282;6.150;2023-06-14T00:59:50;101914.59;;;23.30;43.50
62126;BME280;69591;53.282;6.150;2023-06-14T01:00:53;101912.63;;;23.31;43.58
62126;BME280;69591;53.282;6.150;2023-06-14T01:01:55;101913.00;;;23.29;43.51
62126;BME280;69591;53.282;6.150;2023-06-14T01:02:57;101911.06;;;23.30;43.69
62126;BME280;69591;53.282;6.150;2023-06-14T01:03:58;101911.06;;;23.30;43.61
62126;BME280;69591;53.282;6.150;2023-06-14T01:05:00;101916.19;;;23.28;43.48
62126;BME280;69591;53.282;6.150;2023-06-14T01:06:07;101902.78;;;23.30;43.52
62126;BME280;69591;53.282;6.150;2023-06-14T01:07:15;101907.91;;;23.28;43.96
62126;BME280;69591;53.282;6.150;2023-06-14T01:08:22;101909.16;;;23.06;43.73
62126;BME280;69591;53.282;6.150;2023-06-14T01:09:33;101909.91;;;23.17;43.77
62126;BME280;69591;53.282;6.150;2023-06-14T01:10:47;101903.22;;;23.18;43.66
62126;BME280;69591;53.282;6.150;2023-06-14T01:11:58;101909.09;;;23.20;43.44
62126;BME280;69591;53.282;6.150;2023-06-14T01:13:07;101910.69;;;23.21;43.79
62126;BME280;69591;53.282;6.150;2023-06-14T01:14:12;101913.84;;;23.19;43.55
62126;BME280;69591;53.282;6.150;2023-06-14T01:15:15;101913.44;;;23.21;43.65
62126;BME280;69591;53.282;6.150;2023-06-14T01:16:19;101913.81;;;23.23;43.82
62126;BME280;69591;53.282;6.150;2023-06-14T01:17:22;101912.25;;;23.22;43.64
62126;BME280;69591;53.282;6.150;2023-06-14T01:18:24;101916.97;;;23.21;43.77
62126;BME280;69591;53.282;6.150;2023-06-14T01:19:26;101912.25;;;23.22;43.87
62126;BME280;69591;53.282;6.150;2023-06-14T01:20:28;101905.94;;;23.21;43.74
62126;BME280;69591;53.282;6.150;2023-06-14T01:21:30;101907.13;;;23.20;43.73
62126;BME280;69591;53.282;6.150;2023-06-14T01:22:32;101910.69;;;23.21;43.64
62126;BME280;69591;53.282;6.150;2023-06-14T01:23:36;101903.97;;;23.22;43.82
62126;BME280;69591;53.282;6.150;2023-06-14T01:24:38;101910.69;;;23.21;43.68
62126;BME280;69591;53.282;6.150;2023-06-14T01:25:39;101907.94;;;23.21;43.56
62126;BME280;69591;53.282;6.150;2023-06-14T01:26:41;101905.16;;;23.21;43.49
62126;BME280;69591;53.282;6.150;2023-06-14T01:27:43;101906.72;;;23.22;44.01
62126;BME280;69591;53.282;6.150;2023-06-14T01:28:45;101904.38;;;23.20;43.74
62126;BME280;69591;53.282;6.150;2023-06-14T01:29:47;101905.16;;;23.21;43.64
62126;BME280;69591;53.282;6.150;2023-06-14T01:30:51;101907.94;;;23.21;43.99
62126;BME280;69591;53.282;6.150;2023-06-14T01:31:54;101913.03;;;23.19;43.93
62126;BME280;69591;53.282;6.150;2023-06-14T01:32:56;101909.09;;;23.20;43.51
62126;BME280;69591;53.282;6.150;2023-06-14T01:33:59;101913.03;;;23.19;44.06
62126;BME280;69591;53.282;6.150;2023-06-14T01:35:01;101913.03;;;23.19;43.96
62126;BME280;69591;53.282;6.150;2023-06-14T01:36:05;101909.09;;;23.20;43.78
62126;BME280;69591;53.282;6.150;2023-06-14T01:37:09;101911.47;;;23.18;43.68
62126;BME280;69591;53.282;6.150;2023-06-14T01:38:12;101913.03;;;23.19;43.68
62126;BME280;69591;53.282;6.150;2023-06-14T01:39:17;101909.50;;;23.18;43.92
62126;BME280;69591;53.282;6.150;2023-06-14T01:40:20;101917.00;;;23.18;43.78
62126;BME280;69591;53.282;6.150;2023-06-14T01:41:23;101911.47;;;23.18;43.82
62126;BME280;69591;53.282;6.150;2023-06-14T01:42:27;101909.91;;;23.17;43.97
62126;BME280;69591;53.282;6.150;2023-06-14T01:43:30;101905.97;;;23.18;43.71
62126;BME280;69591;53.282;6.150;2023-06-14T01:44:32;101911.47;;;23.18;43.98
62126;BME280;69591;53.282;6.150;2023-06-14T01:45:36;101908.72;;;23.18;43.87
62126;BME280;69591;53.282;6.150;2023-06-14T01:46:40;101916.19;;;23.17;43.72
62126;BME280;69591;53.282;6.150;2023-06-14T01:47:43;101909.91;;;23.17;43.90
62126;BME280;69591;53.282;6.150;2023-06-14T01:48:45;101911.09;;;23.16;43.91
62126;BME280;69591;53.282;6.150;2023-06-14T01:49:47;101911.09;;;23.16;44.35
62126;BME280;69591;53.282;6.150;2023-06-14T01:50:49;101909.53;;;23.15;43.91
62126;BME280;69591;53.282;6.150;2023-06-14T01:51:51;101910.28;;;23.15;44.01
62126;BME280;69591;53.282;6.150;2023-06-14T01:52:52;101911.50;;;23.14;43.96
62126;BME280;69591;53.282;6.150;2023-06-14T01:53:54;101915.81;;;23.15;44.01
62126;BME280;69591;53.282;6.150;2023-06-14T01:54:57;101912.28;;;23.15;43.87
62126;BME280;69591;53.282;6.150;2023-06-14T01:55:59;101907.94;;;23.14;44.01
62126;BME280;69591;53.282;6.150;2023-06-14T01:57:01;101909.13;;;23.13;43.74
62126;BME280;69591;53.282;6.150;2023-06-14T01:58:02;101918.19;;;23.13;44.00
62126;BME280;69591;53.282;6.150;2023-06-14T01:59:04;101916.22;;;23.14;44.19
62126;BME280;69591;53.282;6.150;2023-06-14T02:00:08;101914.66;;;23.13;44.06
62126;BME280;69591;53.282;6.150;2023-06-14T02:01:13;101914.66;;;23.13;44.20
62126;BME280;69591;53.282;6.150;2023-06-14T02:02:15;101907.56;;;23.12;44.16
62126;BME280;69591;53.282;6.150;2023-06-14T02:03:17;101913.09;;;23.12;44.11
62126;BME280;69591;53.282;6.150;2023-06-14T02:04:20;101911.91;;;23.13;44.35
62126;BME280;69591;53.282;6.150;2023-06-14T02:05:22;101913.09;;;23.12;44.18
62126;BME280;69591;53.282;6.150;2023-06-14T02:06:24;101921.34;;;23.12;44.26
62126;BME280;69591;53.282;6.150;2023-06-14T02:07:27;101912.28;;;23.11;44.17
62126;BME280;69591;53.282;6.150;2023-06-14T02:08:29;101915.06;;;23.11;44.00
62126;BME280;69591;53.282;6.150;2023-06-14T02:09:34;101917.00;;;23.11;44.33
62126;BME280;69591;53.282;6.150;2023-06-14T02:10:37;101912.28;;;23.11;44.29
62126;BME280;69591;53.282;6.150;2023-06-14T02:11:38;101912.69;;;23.10;44.27
62126;BME280;69591;53.282;6.150;2023-06-14T02:12:40;101916.22;;;23.10;44.09
62126;BME280;69591;53.282;6.150;2023-06-14T02:13:43;101904.44;;;23.10;44.26
62126;BME280;69591;53.282;6.150;2023-06-14T02:14:45;101915.44;;;23.10;44.24
62126;BME280;69591;53.282;6.150;2023-06-14T02:15:47;101911.09;;;23.09;44.03
62126;BME280;69591;53.282;6.150;2023-06-14T02:16:48;101908.34;;;23.09;44.22
62126;BME280;69591;53.282;6.150;2023-06-14T02:17:50;101908.34;;;23.09;44.06
62126;BME280;69591;53.282;6.150;2023-06-14T02:18:52;101913.84;;;23.09;44.08
62126;BME280;69591;53.282;6.150;2023-06-14T02:19:54;101912.69;;;23.10;44.25
62126;BME280;69591;53.282;6.150;2023-06-14T02:20:56;101903.63;;;23.09;44.42
62126;BME280;69591;53.282;6.150;2023-06-14T02:21:58;101908.34;;;23.09;44.43
62126;BME280;69591;53.282;6.150;2023-06-14T02:23:00;101905.59;;;23.09;44.45
62126;BME280;69591;53.282;6.150;2023-06-14T02:24:02;101909.53;;;23.08;44.41
62126;BME280;69591;53.282;6.150;2023-06-14T02:25:04;101906.78;;;23.08;44.10
62126;BME280;69591;53.282;6.150;2023-06-14T02:26:08;101907.59;;;23.08;44.35
62126;BME280;69591;53.282;6.150;2023-06-14T02:27:10;101902.47;;;23.07;44.48
62126;BME280;69591;53.282;6.150;2023-06-14T02:28:11;101906.41;;;23.06;44.30
62126;BME280;69591;53.282;6.150;2023-06-14T02:29:13;101906.41;;;23.06;44.29
62126;BME280;69591;53.282;6.150;2023-06-14T02:30:15;101909.16;;;23.06;44.41
62126;BME280;69591;53.282;6.150;2023-06-14T02:31:17;101913.09;;;23.05;44.19
62126;BME280;69591;53.282;6.150;2023-06-14T02:32:19;101909.16;;;23.06;44.55
62126;BME280;69591;53.282;6.150;2023-06-14T02:33:21;101911.16;;;23.05;44.56
62126;BME280;69591;53.282;6.150;2023-06-14T02:34:23;101909.94;;;23.06;44.39
62126;BME280;69591;53.282;6.150;2023-06-14T02:35:24;101914.66;;;23.06;44.25
62126;BME280;69591;53.282;6.150;2023-06-14T02:36:26;101913.09;;;23.05;44.24
62126;BME280;69591;53.282;6.150;2023-06-14T02:37:28;101908.38;;;23.05;44.46
62126;BME280;69591;53.282;6.150;2023-06-14T02:38:30;101911.53;;;23.04;44.31
62126;BME280;69591;53.282;6.150;2023-06-14T02:39:31;101911.16;;;23.05;44.32
62126;BME280;69591;53.282;6.150;2023-06-14T02:40:33;101914.66;;;23.06;44.31
62126;BME280;69591;53.282;6.150;2023-06-14T02:41:36;101905.63;;;23.05;44.41
62126;BME280;69591;53.282;6.150;2023-06-14T02:42:38;101910.34;;;23.05;44.52
62126;BME280;69591;53.282;6.150;2023-06-14T02:43:40;101909.94;;;23.03;44.25
62126;BME280;69591;53.282;6.150;2023-06-14T02:44:42;101909.94;;;23.03;44.44
62126;BME280;69591;53.282;6.150;2023-06-14T02:45:43;101908.41;;;23.02;44.52
62126;BME280;69591;53.282;6.150;2023-06-14T02:46:45;101912.72;;;23.03;44.50
62126;BME280;69591;53.282;6.150;2023-06-14T02:47:47;101915.47;;;23.03;44.48
62126;BME280;69591;53.282;6.150;2023-06-14T02:48:49;101919.41;;;23.02;44.62
62126;BME280;69591;53.282;6.150;2023-06-14T02:49:51;101921.38;;;23.01;44.52
62126;BME280;69591;53.282;6.150;2023-06-14T02:50:53;101916.66;;;23.02;44.34
62126;BME280;69591;53.282;6.150;2023-06-14T02:51:54;101915.88;;;23.01;44.75
62126;BME280;69591;53.282;6.150;2023-06-14T02:52:56;101920.22;;;23.02;44.70
62126;BME280;69591;53.282;6.150;2023-06-14T02:53:58;101920.56;;;23.01;44.44
62126;BME280;69591;53.282;6.150;2023-06-14T02:55:00;101917.81;;;23.01;44.62
62126;BME280;69591;53.282;6.150;2023-06-14T02:56:01;101918.63;;;23.01;44.64
62126;BME280;69591;53.282;6.150;2023-06-14T02:57:05;101921.38;;;23.01;44.40
62126;BME280;69591;53.282;6.150;2023-06-14T02:58:08;101915.47;;;22.99;44.62
62126;BME280;69591;53.282;6.150;2023-06-14T02:59:09;101923.34;;;23.01;44.70
62126;BME280;69591;53.282;6.150;2023-06-14T03:00:13;101916.25;;;23.00;44.80
62126;BME280;69591;53.282;6.150;2023-06-14T03:01:18;101916.25;;;23.00;44.83
62126;BME280;69591;53.282;6.150;2023-06-14T03:02:19;101916.25;;;23.00;44.78
62126;BME280;69591;53.282;6.150;2023-06-14T03:03:22;101908.78;;;23.00;44.78
62126;BME280;69591;53.282;6.150;2023-06-14T03:04:27;101920.22;;;22.99;44.51
62126;BME280;69591;53.282;6.150;2023-06-14T03:05:29;101915.88;;;22.98;44.88
62126;BME280;69591;53.282;6.150;2023-06-14T03:06:31;101918.63;;;22.98;44.61
62126;BME280;69591;53.282;6.150;2023-06-14T03:07:33;101918.63;;;22.98;44.78
62126;BME280;69591;53.282;6.150;2023-06-14T03:08:37;101919.03;;;22.96;44.85
62126;BME280;69591;53.282;6.150;2023-06-14T03:09:43;101923.75;;;22.96;44.53
62126;BME280;69591;53.282;6.150;2023-06-14T03:10:46;101921.00;;;22.96;44.67
62126;BME280;69591;53.282;6.150;2023-06-14T03:11:48;101921.00;;;22.96;44.92
62126;BME280;69591;53.282;6.150;2023-06-14T03:12:52;101922.56;;;22.97;44.98
62126;BME280;69591;53.282;6.150;2023-06-14T03:13:55;101920.22;;;22.95;44.82
62126;BME280;69591;53.282;6.150;2023-06-14T03:14:59;101933.19;;;22.95;44.64
62126;BME280;69591;53.282;6.150;2023-06-14T03:16:01;101915.91;;;22.94;44.74
62126;BME280;69591;53.282;6.150;2023-06-14T03:17:03;101922.19;;;22.95;44.74
62126;BME280;69591;53.282;6.150;2023-06-14T03:18:08;101927.69;;;22.95;44.74
62126;BME280;69591;53.282;6.150;2023-06-14T03:19:10;101919.41;;;22.95;44.74
62126;BME280;69591;53.282;6.150;2023-06-14T03:20:12;101927.69;;;22.95;44.88
62126;BME280;69591;53.282;6.150;2023-06-14T03:21:14;101922.19;;;22.95;44.77
62126;BME280;69591;53.282;6.150;2023-06-14T03:22:17;101923.38;;;22.94;44.69
62126;BME280;69591;53.282;6.150;2023-06-14T03:23:19;101936.34;;;22.93;45.08
62126;BME280;69591;53.282;6.150;2023-06-14T03:24:20;101928.88;;;22.94;45.04
62126;BME280;69591;53.282;6.150;2023-06-14T03:25:22;101932.81;;;22.93;44.88
62126;BME280;69591;53.282;6.150;2023-06-14T03:26:25;101935.59;;;22.93;45.19
62126;BME280;69591;53.282;6.150;2023-06-14T03:27:30;101931.25;;;22.92;44.91
62126;BME280;69591;53.282;6.150;2023-06-14T03:28:33;101937.16;;;22.94;45.19
62126;BME280;69591;53.282;6.150;2023-06-14T03:29:35;101938.34;;;22.93;44.86
62126;BME280;69591;53.282;6.150;2023-06-14T03:30:37;101932.03;;;22.92;44.95
62126;BME280;69591;53.282;6.150;2023-06-14T03:31:56;101939.13;;;22.86;44.74
62126;BME280;69591;53.282;6.150;2023-06-14T03:32:58;101938.34;;;22.89;45.34
62126;BME280;69591;53.282;6.150;2023-06-14T03:34:02;101935.19;;;22.91;45.02
62126;BME280;69591;53.282;6.150;2023-06-14T03:35:04;101941.47;;;22.91;44.98
62126;BME280;69591;53.282;6.150;2023-06-14T03:36:07;101934.00;;;22.92;45.17
62126;BME280;69591;53.282;6.150;2023-06-14T03:37:08;101945.00;;;22.92;44.69
62126;BME280;69591;53.282;6.150;2023-06-14T03:38:10;101947.75;;;22.92;45.24
62126;BME280;69591;53.282;6.150;2023-06-14T03:39:12;101943.44;;;22.91;45.24
62126;BME280;69591;53.282;6.150;2023-06-14T03:40:15;101949.34;;;22.93;45.14
62126;BME280;69591;53.282;6.150;2023-06-14T03:41:20;101937.16;;;22.90;45.27
62126;BME280;69591;53.282;6.150;2023-06-14T03:42:23;101939.91;;;22.90;45.41
62126;BME280;69591;53.282;6.150;2023-06-14T03:43:25;101946.19;;;22.91;45.28
62126;BME280;69591;53.282;6.150;2023-06-14T03:44:29;101943.06;;;22.92;45.30
62126;BME280;69591;53.282;6.150;2023-06-14T03:45:31;101944.22;;;22.91;45.17
62126;BME280;69591;53.282;6.150;2023-06-14T03:46:33;101943.44;;;22.91;45.33
62126;BME280;69591;53.282;6.150;2023-06-14T03:47:35;101942.25;;;22.92;45.50
62126;BME280;69591;53.282;6.150;2023-06-14T03:48:37;101940.69;;;22.91;45.28
62126;BME280;69591;53.282;6.150;2023-06-14T03:49:39;101942.66;;;22.90;45.46
62126;BME280;69591;53.282;6.150;2023-06-14T03:50:41;101942.25;;;22.92;45.46
62126;BME280;69591;53.282;6.150;2023-06-14T03:51:43;101940.69;;;22.91;45.21
62126;BME280;69591;53.282;6.150;2023-06-14T03:52:47;101937.53;;;22.92;45.49
62126;BME280;69591;53.282;6.150;2023-06-14T03:53:51;101941.84;;;22.90;45.26
62126;BME280;69591;53.282;6.150;2023-06-14T03:55:12;101941.50;;;22.88;45.39
62126;BME280;69591;53.282;6.150;2023-06-14T03:56:17;101947.00;;;22.88;45.54
62126;BME280;69591;53.282;6.150;2023-06-14T03:57:20;101944.63;;;22.90;45.48
62126;BME280;69591;53.282;6.150;2023-06-14T03:58:23;101952.88;;;22.90;45.55
62126;BME280;69591;53.282;6.150;2023-06-14T03:59:25;101948.16;;;22.90;45.66
62126;BME280;69591;53.282;6.150;2023-06-14T04:00:29;101952.88;;;22.90;45.57
62126;BME280;69591;53.282;6.150;2023-06-14T04:01:30;101946.19;;;22.91;45.31
62126;BME280;69591;53.282;6.150;2023-06-14T04:02:34;101951.72;;;22.91;45.76
62126;BME280;69591;53.282;6.150;2023-06-14T04:03:36;101958.00;;;22.91;45.56
62126;BME280;69591;53.282;6.150;2023-06-14T04:04:38;101948.97;;;22.91;45.46
62126;BME280;69591;53.282;6.150;2023-06-14T04:05:40;101946.97;;;22.91;45.69
62126;BME280;69591;53.282;6.150;2023-06-14T04:06:42;101956.03;;;22.92;45.44
62126;BME280;69591;53.282;6.150;2023-06-14T04:07:45;101953.28;;;22.92;45.54
62126;BME280;69591;53.282;6.150;2023-06-14T04:08:47;101954.88;;;22.93;45.96
62126;BME280;69591;53.282;6.150;2023-06-14T04:09:48;101955.63;;;22.93;45.56
62126;BME280;69591;53.282;6.150;2023-06-14T04:10:50;101949.34;;;22.93;45.78
62126;BME280;69591;53.282;6.150;2023-06-14T04:11:52;101954.88;;;22.93;45.45
62126;BME280;69591;53.282;6.150;2023-06-14T04:12:54;101956.44;;;22.94;45.67
62126;BME280;69591;53.282;6.150;2023-06-14T04:13:56;101957.97;;;22.95;45.50
62126;BME280;69591;53.282;6.150;2023-06-14T04:14:58;101961.94;;;22.94;45.64
62126;BME280;69591;53.282;6.150;2023-06-14T04:16:14;101965.09;;;22.92;45.88
62126;BME280;69591;53.282;6.150;2023-06-14T04:17:17;101963.13;;;22.93;45.82
62126;BME280;69591;53.282;6.150;2023-06-14T04:18:19;101963.88;;;22.93;46.07
62126;BME280;69591;53.282;6.150;2023-06-14T04:19:25;101965.88;;;22.93;45.74
62126;BME280;69591;53.282;6.150;2023-06-14T04:20:27;101969.00;;;22.95;45.56
62126;BME280;69591;53.282;6.150;2023-06-14T04:21:29;101976.09;;;22.96;45.86
62126;BME280;69591;53.282;6.150;2023-06-14T04:22:34;101969.00;;;22.95;46.00
62126;BME280;69591;53.282;6.150;2023-06-14T04:23:36;101967.84;;;22.96;45.92
62126;BME280;69591;53.282;6.150;2023-06-14T04:24:38;101968.59;;;22.96;46.09
62126;BME280;69591;53.282;6.150;2023-06-14T04:25:39;101974.13;;;22.96;46.02
62126;BME280;69591;53.282;6.150;2023-06-14T04:26:42;101971.34;;;22.96;46.04
62126;BME280;69591;53.282;6.150;2023-06-14T04:27:43;101975.31;;;22.95;46.01
62126;BME280;69591;53.282;6.150;2023-06-14T04:28:45;101970.59;;;22.96;45.86
62126;BME280;69591;53.282;6.150;2023-06-14T04:29:47;101971.34;;;22.96;46.19
62126;BME280;69591;53.282;6.150;2023-06-14T04:30:49;101976.09;;;22.96;46.23
62126;BME280;69591;53.282;6.150;2023-06-14T04:31:54;101972.94;;;22.97;46.07
62126;BME280;69591;53.282;6.150;2023-06-14T04:32:58;101975.31;;;22.95;45.91
62126;BME280;69591;53.282;6.150;2023-06-14T04:34:00;101977.66;;;22.97;46.40
62126;BME280;69591;53.282;6.150;2023-06-14T04:35:02;101974.91;;;22.97;46.32
62126;BME280;69591;53.282;6.150;2023-06-14T04:36:05;101972.16;;;22.97;46.50
62126;BME280;69591;53.282;6.150;2023-06-14T04:37:06;101972.16;;;22.97;46.22
62126;BME280;69591;53.282;6.150;2023-06-14T04:38:13;101976.09;;;22.96;46.16
62126;BME280;69591;53.282;6.150;2023-06-14T04:39:15;101977.66;;;22.97;46.49
62126;BME280;69591;53.282;6.150;2023-06-14T04:40:17;101976.47;;;22.98;46.32
62126;BME280;69591;53.282;6.150;2023-06-14T04:41:20;101982.38;;;22.96;46.37
62126;BME280;69591;53.282;6.150;2023-06-14T04:42:22;101972.94;;;22.97;46.32
62126;BME280;69591;53.282;6.150;2023-06-14T04:43:24;101970.97;;;22.98;46.10
62126;BME280;69591;53.282;6.150;2023-06-14T04:44:26;101970.97;;;22.98;46.75
62126;BME280;69591;53.282;6.150;2023-06-14T04:45:28;101973.72;;;22.98;46.36
62126;BME280;69591;53.282;6.150;2023-06-14T04:46:29;101978.47;;;22.97;46.26
62126;BME280;69591;53.282;6.150;2023-06-14T04:47:32;101981.97;;;22.98;46.25
62126;BME280;69591;53.282;6.150;2023-06-14T04:48:35;101981.22;;;22.97;46.65
62126;BME280;69591;53.282;6.150;2023-06-14T04:49:36;101978.47;;;22.97;46.52
62126;BME280;69591;53.282;6.150;2023-06-14T04:50:39;101983.97;;;22.97;46.73
62126;BME280;69591;53.282;6.150;2023-06-14T04:51:41;101980.03;;;22.98;46.47
62126;BME280;69591;53.282;6.150;2023-06-14T04:52:42;101980.03;;;22.98;46.54
62126;BME280;69591;53.282;6.150;2023-06-14T04:53:45;101990.25;;;22.98;46.44
62126;BME280;69591;53.282;6.150;2023-06-14T04:54:46;101987.50;;;22.98;46.28
62126;BME280;69591;53.282;6.150;2023-06-14T04:55:52;101997.34;;;22.99;46.62
62126;BME280;69591;53.282;6.150;2023-06-14T04:56:55;101991.84;;;22.99;46.94
62126;BME280;69591;53.282;6.150;2023-06-14T04:57:59;101991.03;;;22.98;46.73
62126;BME280;69591;53.282;6.150;2023-06-14T04:59:02;101986.31;;;22.99;46.28
62126;BME280;69591;53.282;6.150;2023-06-14T05:00:06;101990.63;;;23.00;46.63
62126;BME280;69591;53.282;6.150;2023-06-14T05:01:09;101987.88;;;23.00;46.79
62126;BME280;69591;53.282;6.150;2023-06-14T05:02:11;101988.28;;;22.98;46.71
62126;BME280;69591;53.282;6.150;2023-06-14T05:03:14;101985.13;;;23.00;46.75
62126;BME280;69591;53.282;6.150;2023-06-14T05:04:16;101992.59;;;22.99;47.00
62126;BME280;69591;53.282;6.150;2023-06-14T05:05:18;101993.41;;;23.00;46.63
62126;BME280;69591;53.282;6.150;2023-06-14T05:06:19;101996.16;;;23.00;46.89
62126;BME280;69591;53.282;6.150;2023-06-14T05:07:21;101991.84;;;22.99;46.97
62126;BME280;69591;53.282;6.150;2023-06-14T05:08:23;101993.41;;;23.00;47.06
62126;BME280;69591;53.282;6.150;2023-06-14T05:09:25;101994.19;;;23.00;47.06
62126;BME280;69591;53.282;6.150;2023-06-14T05:10:27;101993.41;;;23.00;46.88
62126;BME280;69591;53.282;6.150;2023-06-14T05:11:29;101994.19;;;23.00;47.08
62126;BME280;69591;53.282;6.150;2023-06-14T05:12:30;101996.94;;;23.00;46.97
62126;BME280;69591;53.282;6.150;2023-06-14T05:13:32;102005.22;;;23.00;46.99
62126;BME280;69591;53.282;6.150;2023-06-14T05:14:34;101997.72;;;23.01;46.96
62126;BME280;69591;53.282;6.150;2023-06-14T05:15:36;101996.94;;;23.00;46.95
62126;BME280;69591;53.282;6.150;2023-06-14T05:16:38;101997.72;;;23.01;46.64
62126;BME280;69591;53.282;6.150;2023-06-14T05:17:39;101995.75;;;23.01;46.95
62126;BME280;69591;53.282;6.150;2023-06-14T05:18:43;102002.06;;;23.02;47.04
62126;BME280;69591;53.282;6.150;2023-06-14T05:19:44;101999.31;;;23.02;46.97
62126;BME280;69591;53.282;6.150;2023-06-14T05:20:46;101997.34;;;23.02;46.64
62126;BME280;69591;53.282;6.150;2023-06-14T05:21:48;101998.09;;;23.03;47.21
62126;BME280;69591;53.282;6.150;2023-06-14T05:22:50;102001.66;;;23.03;47.08
62126;BME280;69591;53.282;6.150;2023-06-14T05:23:52;101995.75;;;23.01;46.89
62126;BME280;69591;53.282;6.150;2023-06-14T05:24:54;102009.13;;;23.03;46.78
62126;BME280;69591;53.282;6.150;2023-06-14T05:25:55;101998.09;;;23.03;46.45
62126;BME280;69591;53.282;6.150;2023-06-14T05:26:57;102007.56;;;23.02;46.80
62126;BME280;69591;53.282;6.150;2023-06-14T05:27:59;101996.94;;;23.04;46.90